Time;durP1;ratioP1;P1;durP2;ratioP2;P2;SDS_P1;SDS_P2;PMS_P1;PMS_P2;Temp;Humidity;BMP_temperature;BMP_pressure;BME280_temperature;BME280_humidity;BME280_pressure;Samples;Min_cycle;Max_cycle;Signal;HPM_P1;HPM_P2
2022/09/15 00:01:05;;;;;;;0.00;0.00;;;15.70;99.90;;;;;;5014216;28;20435;-72
2022/09/15 00:03:34;;;;;;;0.00;0.00;;;15.70;99.90;;;;;;5013539;28;20847;-72
2022/09/15 00:06:02;;;;;;;0.00;0.00;;;15.70;99.90;;;;;;5013699;28;20533;-68
2022/09/15 00:08:31;;;;;;;0.00;0.00;;;15.70;99.90;;;;;;5013578;28;20476;-72
2022/09/15 00:11:06;;;;;;;0.00;0.00;;;15.70;99.90;;;;;;5013551;28;20532;-72
2022/09/15 00:13:36;;;;;;;0.00;0.00;;;15.70;99.90;;;;;;5013957;28;20808;-71
2022/09/15 00:16:05;;;;;;;0.00;0.00;;;15.80;99.90;;;;;;5013540;28;20945;-70
2022/09/15 00:18:33;;;;;;;0.00;0.00;;;15.80;99.90;;;;;;5013604;28;20442;-71
2022/09/15 00:21:05;;;;;;;0.00;0.00;;;15.80;99.90;;;;;;5013780;28;20520;-70
2022/09/15 00:23:33;;;;;;;0.00;0.00;;;15.80;99.90;;;;;;5013480;28;20837;-70
2022/09/15 00:26:07;;;;;;;0.00;0.00;;;15.80;99.90;;;;;;5013639;28;20465;-69
2022/09/15 00:28:37;;;;;;;0.00;0.00;;;15.70;99.90;;;;;;5013156;28;20457;-69
2022/09/15 00:31:06;;;;;;;0.00;0.00;;;15.70;99.90;;;;;;5013151;28;21067;-69
2022/09/15 00:33:35;;;;;;;0.00;0.00;;;15.60;99.90;;;;;;5013165;28;20934;-70
2022/09/15 00:36:05;;;;;;;0.00;0.00;;;15.50;99.90;;;;;;5013513;28;20937;-69
2022/09/15 00:38:34;;;;;;;0.00;0.00;;;15.40;99.90;;;;;;5013267;28;20446;-69
2022/09/15 00:41:04;;;;;;;0.00;0.00;;;15.30;99.90;;;;;;5013082;28;20987;-70
2022/09/15 00:43:46;;;;;;;0.00;0.00;;;15.30;99.90;;;;;;5013231;28;20473;-69
2022/09/15 00:46:15;;;;;;;0.00;0.00;;;15.30;99.90;;;;;;5013059;28;20500;-70
2022/09/15 00:48:47;;;;;;;0.00;0.00;;;15.30;99.90;;;;;;5012459;28;20446;-70
2022/09/15 00:51:19;;;;;;;0.00;0.00;;;15.30;99.90;;;;;;5012914;28;20474;-69
2022/09/15 00:53:48;;;;;;;0.00;0.00;;;15.30;99.90;;;;;;5013247;28;20846;-70
2022/09/15 00:56:18;;;;;;;0.00;0.00;;;15.30;99.90;;;;;;5012570;28;20977;-69
2022/09/15 00:58:52;;;;;;;0.00;0.00;;;15.30;99.90;;;;;;5013139;28;20457;-69
2022/09/15 01:01:20;;;;;;;0.00;0.00;;;15.30;99.90;;;;;;5012868;28;20437;-69
2022/09/15 01:03:48;;;;;;;0.00;0.00;;;15.30;99.90;;;;;;5013039;28;20493;-69
2022/09/15 01:06:23;;;;;;;0.00;0.00;;;15.30;99.90;;;;;;5012750;28;20438;-69
2022/09/15 01:09:01;;;;;;;0.00;0.00;;;15.30;99.90;;;;;;5012314;28;20437;-70
2022/09/15 01:11:30;;;;;;;0.00;0.00;;;15.40;99.90;;;;;;5012675;28;20481;-69
2022/09/15 01:13:59;;;;;;;0.00;0.00;;;15.40;99.90;;;;;;5012546;28;20450;-72
2022/09/15 01:16:37;;;;;;;0.00;0.00;;;15.40;99.90;;;;;;5012720;28;20462;-71
2022/09/15 01:19:22;;;;;;;0.00;0.00;;;15.40;99.90;;;;;;5012275;28;20977;-70
2022/09/15 01:21:55;;;;;;;0.00;0.00;;;15.40;99.90;;;;;;5012472;28;20500;-70
2022/09/15 01:24:51;;;;;;;0.00;0.00;;;15.40;99.90;;;;;;5012745;28;20438;-70
2022/09/15 01:27:38;;;;;;;0.00;0.00;;;15.40;99.90;;;;;;5012534;28;20794;-71
2022/09/15 01:30:13;;;;;;;0.00;0.00;;;15.40;99.90;;;;;;5015325;28;20531;-71
2022/09/15 01:33:04;;;;;;;0.00;0.00;;;15.40;99.90;;;;;;5016653;28;20446;-71
2022/09/15 01:35:50;;;;;;;0.00;0.00;;;15.50;99.90;;;;;;5016787;28;20592;-70
2022/09/15 01:38:30;;;;;;;0.00;0.00;;;15.50;99.90;;;;;;5016065;28;20495;-70
2022/09/15 01:41:04;;;;;;;0.00;0.00;;;15.50;99.90;;;;;;5016681;28;20514;-70
2022/09/15 01:43:34;;;;;;;0.00;0.00;;;15.50;99.90;;;;;;5016463;28;20472;-70
2022/09/15 01:46:04;;;;;;;0.00;0.00;;;15.50;99.90;;;;;;5016664;28;20493;-69
2022/09/15 01:48:35;;;;;;;0.00;0.00;;;15.50;99.90;;;;;;5016389;28;20434;-70
2022/09/15 01:51:05;;;;;;;0.00;0.00;;;15.50;99.90;;;;;;5016146;28;21002;-69
2022/09/15 01:53:34;;;;;;;0.00;0.00;;;15.60;99.90;;;;;;5016304;28;20496;-69
2022/09/15 01:56:06;;;;;;;0.00;0.00;;;15.60;99.90;;;;;;5016468;28;20442;-69
2022/09/15 01:58:35;;;;;;;0.00;0.00;;;15.50;99.90;;;;;;5016085;28;20941;-70
2022/09/15 02:01:08;;;;;;;0.00;0.00;;;15.50;99.90;;;;;;5016163;28;20458;-70
2022/09/15 02:03:43;;;;;;;0.00;0.00;;;15.50;99.90;;;;;;5015906;28;20536;-71
2022/09/15 02:06:18;;;;;;;0.00;0.00;;;15.50;99.90;;;;;;5016285;28;20523;-71
2022/09/15 02:08:51;;;;;;;0.00;0.00;;;15.50;99.90;;;;;;5016077;28;20500;-70
2022/09/15 02:11:21;;;;;;;0.00;0.00;;;15.50;99.90;;;;;;5016106;28;20473;-70
2022/09/15 02:13:58;;;;;;;0.00;0.00;;;15.40;99.90;;;;;;5015900;28;20992;-71
2022/09/15 02:19:39;;;;;;;0.00;0.00;;;15.50;99.90;;;;;;5771778;23;20482;-85
2022/09/15 02:22:12;;;;;;;0.00;0.00;;;15.60;99.90;;;;;;4986905;28;20577;-89
2022/09/15 02:24:44;;;;;;;0.00;0.00;;;15.60;99.90;;;;;;4980578;28;20452;-88
2022/09/15 02:27:17;;;;;;;0.00;0.00;;;15.60;99.90;;;;;;4981375;28;20435;-87
2022/09/15 02:29:49;;;;;;;0.00;0.00;;;15.60;99.90;;;;;;4980173;28;20452;-88
2022/09/15 02:32:19;;;;;;;0.00;0.00;;;15.60;99.90;;;;;;4981623;28;20475;-88
2022/09/15 02:34:51;;;;;;;0.00;0.00;;;15.60;99.90;;;;;;4981531;28;20440;-86
2022/09/15 02:37:21;;;;;;;0.00;0.00;;;15.60;99.90;;;;;;4980711;28;20458;-89
2022/09/15 02:39:55;;;;;;;0.00;0.00;;;15.50;99.90;;;;;;4981168;28;20511;-86
2022/09/15 02:42:24;;;;;;;0.00;0.00;;;15.60;99.90;;;;;;4980260;28;20522;-88
2022/09/15 02:44:52;;;;;;;0.00;0.00;;;15.60;99.90;;;;;;4978946;28;21013;-89
2022/09/15 02:47:24;;;;;;;0.00;0.00;;;15.60;99.90;;;;;;4980114;28;20458;-88
2022/09/15 02:49:55;;;;;;;0.00;0.00;;;15.60;99.90;;;;;;4979634;28;20436;-88
2022/09/15 02:52:27;;;;;;;0.00;0.00;;;15.40;99.90;;;;;;4981017;28;20547;-89
2022/09/15 02:54:54;;;;;;;0.00;0.00;;;15.30;99.90;;;;;;4981426;28;20459;-88
2022/09/15 02:57:23;;;;;;;0.00;0.00;;;15.30;99.90;;;;;;4980760;28;20931;-88
2022/09/15 03:02:36;;;;;;;0.00;0.00;;;15.20;99.90;;;;;;4980901;28;20439;-88
2022/09/15 03:05:07;;;;;;;0.00;0.00;;;15.10;99.90;;;;;;4981135;28;20788;-88
2022/09/15 03:07:36;;;;;;;0.00;0.00;;;15.10;99.90;;;;;;4981333;28;20451;-88
2022/09/15 03:10:05;;;;;;;0.00;0.00;;;15.00;99.90;;;;;;4988296;28;20474;-88
2022/09/15 03:12:37;;;;;;;0.00;0.00;;;15.00;99.90;;;;;;4981359;28;20482;-88
2022/09/15 03:15:06;;;;;;;0.00;0.00;;;15.00;99.90;;;;;;4981546;28;20757;-87
2022/09/15 03:17:35;;;;;;;0.00;0.00;;;14.90;99.90;;;;;;4982456;28;20886;-88
2022/09/15 03:20:06;;;;;;;0.00;0.00;;;14.90;99.90;;;;;;4992232;28;20455;-84
2022/09/15 03:22:34;;;;;;;0.00;0.00;;;14.90;99.90;;;;;;4988647;28;20448;-87
2022/09/15 03:25:03;;;;;;;0.00;0.00;;;15.00;99.90;;;;;;4980643;28;20904;-88
2022/09/15 03:27:31;;;;;;;0.00;0.00;;;15.10;99.90;;;;;;4980355;28;20451;-88
2022/09/15 03:30:00;;;;;;;0.00;0.00;;;15.10;99.90;;;;;;4979949;28;20825;-88
2022/09/15 03:32:28;;;;;;;0.00;0.00;;;15.10;99.90;;;;;;4980477;28;20990;-88
2022/09/15 03:34:57;;;;;;;0.00;0.00;;;15.10;99.90;;;;;;4980433;28;20558;-89
2022/09/15 03:37:27;;;;;;;0.00;0.00;;;15.20;99.90;;;;;;4981640;28;20454;-88
2022/09/15 03:39:55;;;;;;;0.00;0.00;;;15.20;99.90;;;;;;4980903;28;20451;-88
2022/09/15 03:42:23;;;;;;;0.00;0.00;;;15.20;99.90;;;;;;4980060;28;20454;-88
2022/09/15 03:44:51;;;;;;;0.00;0.00;;;15.20;99.90;;;;;;4980029;28;20523;-88
2022/09/15 03:47:19;;;;;;;0.00;0.00;;;15.20;99.90;;;;;;4978694;28;20455;-88
2022/09/15 03:49:47;;;;;;;0.00;0.00;;;15.20;99.90;;;;;;4978815;28;20554;-88
2022/09/15 03:52:15;;;;;;;0.00;0.00;;;15.20;99.90;;;;;;4979421;28;20506;-87
2022/09/15 03:54:45;;;;;;;0.00;0.00;;;15.20;99.90;;;;;;4979066;28;20447;-87
2022/09/15 03:57:16;;;;;;;0.00;0.00;;;15.10;99.90;;;;;;4978833;28;20456;-88
2022/09/15 03:59:44;;;;;;;0.00;0.00;;;15.10;99.90;;;;;;4979262;28;20554;-87
2022/09/15 04:02:13;;;;;;;0.00;0.00;;;15.10;99.90;;;;;;4979168;28;20941;-89
2022/09/15 04:04:41;;;;;;;0.00;0.00;;;15.00;99.90;;;;;;4979672;28;20456;-89
2022/09/15 04:07:09;;;;;;;0.00;0.00;;;15.00;99.90;;;;;;4979759;28;20440;-88
2022/09/15 04:09:37;;;;;;;0.00;0.00;;;15.00;99.90;;;;;;4979217;28;20460;-88
2022/09/15 04:12:09;;;;;;;0.00;0.00;;;15.00;99.90;;;;;;4979517;28;20480;-88
2022/09/15 04:14:38;;;;;;;0.00;0.00;;;15.00;99.90;;;;;;4980740;28;20437;-89
2022/09/15 04:17:06;;;;;;;0.00;0.00;;;15.00;99.90;;;;;;4981201;28;20519;-88
2022/09/15 04:19:34;;;;;;;0.00;0.00;;;15.00;99.90;;;;;;4980798;28;20864;-88
2022/09/15 04:22:02;;;;;;;0.00;0.00;;;15.00;99.90;;;;;;4997700;28;20479;-87
2022/09/15 04:24:30;;;;;;;0.00;0.00;;;14.90;99.90;;;;;;4983882;28;21012;-88
2022/09/15 04:26:58;;;;;;;0.00;0.00;;;14.90;99.90;;;;;;4979271;28;20455;-89
2022/09/15 04:29:28;;;;;;;0.00;0.00;;;15.00;99.90;;;;;;4979168;28;20455;-88
2022/09/15 04:31:55;;;;;;;0.00;0.00;;;15.00;99.90;;;;;;4978777;28;20521;-88
2022/09/15 04:34:24;;;;;;;0.00;0.00;;;15.00;99.90;;;;;;4979656;28;20436;-87
2022/09/15 04:36:52;;;;;;;0.00;0.00;;;15.00;99.90;;;;;;4978753;28;20474;-87
2022/09/15 04:39:20;;;;;;;0.00;0.00;;;15.00;99.90;;;;;;4978377;28;20482;-87
2022/09/15 04:41:49;;;;;;;0.00;0.00;;;15.00;99.90;;;;;;4978968;28;20464;-87
2022/09/15 04:44:20;;;;;;;0.00;0.00;;;15.00;99.90;;;;;;4979418;28;20458;-89
2022/09/15 04:46:50;;;;;;;0.00;0.00;;;14.90;99.90;;;;;;4978999;28;20534;-90
2022/09/15 04:49:18;;;;;;;0.00;0.00;;;14.90;99.90;;;;;;4980609;28;20452;-89
2022/09/15 04:51:46;;;;;;;0.00;0.00;;;14.90;99.90;;;;;;4979653;28;20503;-89
2022/09/15 04:54:14;;;;;;;0.00;0.00;;;14.90;99.90;;;;;;4978954;28;20452;-87
2022/09/15 04:56:44;;;;;;;0.00;0.00;;;15.00;99.90;;;;;;4973675;28;20606;-88
2022/09/15 04:59:25;;;;;;;0.00;0.00;;;15.00;99.90;;;;;;4960257;29;20495;-88
2022/09/15 05:01:55;;;;;;;0.00;0.00;;;15.00;99.90;;;;;;4970973;28;20505;-89
2022/09/15 05:04:24;;;;;;;0.00;0.00;;;15.00;99.90;;;;;;4979457;28;20943;-89
2022/09/15 05:06:52;;;;;;;0.00;0.00;;;15.10;99.90;;;;;;4978396;28;20855;-91
2022/09/15 05:09:24;;;;;;;0.00;0.00;;;15.20;99.90;;;;;;4981743;28;20503;-87
2022/09/15 05:11:52;;;;;;;0.00;0.00;;;15.10;99.90;;;;;;4986129;28;20550;-90
2022/09/15 05:14:20;;;;;;;0.00;0.00;;;15.10;99.90;;;;;;4983059;28;20458;-89
2022/09/15 05:16:48;;;;;;;0.00;0.00;;;15.10;99.90;;;;;;4984933;28;20456;-88
2022/09/15 05:19:20;;;;;;;0.00;0.00;;;15.10;99.90;;;;;;4982733;28;20471;-90
2022/09/15 05:21:48;;;;;;;0.00;0.00;;;15.10;99.90;;;;;;4989611;28;20452;-85
2022/09/15 05:24:16;;;;;;;0.00;0.00;;;15.10;99.90;;;;;;4995397;28;20550;-86
2022/09/15 05:26:44;;;;;;;0.00;0.00;;;15.10;99.90;;;;;;4979986;28;20870;-86
2022/09/15 05:29:12;;;;;;;0.00;0.00;;;15.20;99.90;;;;;;4979915;28;20498;-89
2022/09/15 05:31:40;;;;;;;0.00;0.00;;;15.20;99.90;;;;;;4979918;28;20475;-90
2022/09/15 05:34:10;;;;;;;0.00;0.00;;;15.20;99.90;;;;;;4982004;28;20511;-89
2022/09/15 05:36:42;;;;;;;0.00;0.00;;;15.30;99.90;;;;;;4983796;28;20486;-88
2022/09/15 05:39:10;;;;;;;0.00;0.00;;;15.30;99.90;;;;;;4983049;28;20462;-87
2022/09/15 05:41:39;;;;;;;0.00;0.00;;;15.30;99.90;;;;;;4971982;28;21001;-88
2022/09/15 05:44:11;;;;;;;0.00;0.00;;;15.30;99.90;;;;;;4980764;28;20479;-89
2022/09/15 05:46:39;;;;;;;0.00;0.00;;;15.30;99.90;;;;;;4981283;28;20451;-89
2022/09/15 05:49:07;;;;;;;0.00;0.00;;;15.30;99.90;;;;;;4980267;28;20939;-89
2022/09/15 05:51:36;;;;;;;0.00;0.00;;;15.30;99.90;;;;;;4979852;28;20464;-90
2022/09/15 05:54:05;;;;;;;0.00;0.00;;;15.20;99.90;;;;;;4981218;28;20483;-89
2022/09/15 05:56:34;;;;;;;0.00;0.00;;;15.20;99.90;;;;;;4982851;28;20456;-90
2022/09/15 05:59:02;;;;;;;0.00;0.00;;;15.10;99.90;;;;;;4984913;28;20460;-87
2022/09/15 06:01:30;;;;;;;0.00;0.00;;;14.90;99.90;;;;;;4980080;28;20636;-86
2022/09/15 06:03:58;;;;;;;0.00;0.00;;;14.80;99.90;;;;;;4979335;28;20808;-85
2022/09/15 06:06:27;;;;;;;0.00;0.00;;;14.80;99.90;;;;;;4978936;28;20491;-87
2022/09/15 06:08:57;;;;;;;0.00;0.00;;;14.70;99.90;;;;;;4977892;28;20451;-86
2022/09/15 06:11:29;;;;;;;0.00;0.00;;;14.70;99.90;;;;;;4978350;28;20839;-87
2022/09/15 06:13:59;;;;;;;0.00;0.00;;;14.70;99.90;;;;;;4979610;28;20479;-86
2022/09/15 06:16:27;;;;;;;0.00;0.00;;;14.80;99.90;;;;;;4981405;28;20463;-85
2022/09/15 06:18:55;;;;;;;0.00;0.00;;;14.90;99.90;;;;;;4973890;28;20456;-85
2022/09/15 06:21:24;;;;;;;0.00;0.00;;;15.00;99.90;;;;;;4964602;29;21051;-85
2022/09/15 06:23:53;;;;;;;0.00;0.00;;;15.10;99.90;;;;;;4973796;28;20444;-87
2022/09/15 06:26:22;;;;;;;0.00;0.00;;;15.20;99.90;;;;;;4988269;28;20474;-84
2022/09/15 06:28:53;;;;;;;0.00;0.00;;;15.20;99.90;;;;;;4982252;28;20450;-86
2022/09/15 06:31:22;;;;;;;0.00;0.00;;;15.30;99.90;;;;;;4987793;28;20527;-86
2022/09/15 06:33:52;;;;;;;0.00;0.00;;;15.30;99.90;;;;;;4981450;28;20571;-86
2022/09/15 06:36:23;;;;;;;0.00;0.00;;;15.40;99.90;;;;;;4980768;28;20467;-88
2022/09/15 06:38:51;;;;;;;0.00;0.00;;;15.60;99.90;;;;;;4983548;28;20417;-86
2022/09/15 06:41:19;;;;;;;0.00;0.00;;;15.70;99.90;;;;;;4982887;28;20464;-86
2022/09/15 06:43:49;;;;;;;0.00;0.00;;;15.80;99.90;;;;;;4983508;28;20455;-87
2022/09/15 06:46:22;;;;;;;0.00;0.00;;;15.90;99.90;;;;;;4983440;28;20503;-87
2022/09/15 06:48:51;;;;;;;0.00;0.00;;;15.90;99.90;;;;;;4983960;28;20428;-87
2022/09/15 06:51:22;;;;;;;0.00;0.00;;;15.80;99.90;;;;;;4984314;28;20977;-87
2022/09/15 06:53:53;;;;;;;0.00;0.00;;;15.80;99.90;;;;;;4982497;28;20539;-86
2022/09/15 06:56:23;;;;;;;0.00;0.00;;;15.70;99.90;;;;;;4980268;28;21034;-87
2022/09/15 06:58:54;;;;;;;0.00;0.00;;;15.60;99.90;;;;;;4981370;28;20440;-86
2022/09/15 07:01:25;;;;;;;0.00;0.00;;;15.40;99.90;;;;;;4980491;28;20468;-87
2022/09/15 07:03:57;;;;;;;0.00;0.00;;;15.30;99.90;;;;;;4980387;28;20448;-86
2022/09/15 07:06:28;;;;;;;0.00;0.00;;;15.20;99.90;;;;;;4980628;28;20444;-87
2022/09/15 07:09:12;;;;;;;0.00;0.00;;;15.20;99.90;;;;;;4962860;28;20509;-87
2022/09/15 07:11:41;;;;;;;0.00;0.00;;;15.30;99.90;;;;;;4961814;29;20481;-88
2022/09/15 07:15:08;;;;;;;;;;;;;;;;;;;;;
2022/09/15 07:18:31;;;;;;;0.00;0.00;;;15.40;99.90;;;;;;4926483;29;20449;-89
2022/09/15 07:21:26;;;;;;;;;;;;;;;;;;;;;
2022/09/15 07:27:57;;;;;;;0.00;0.00;;;15.50;99.90;;;;;;4949393;29;21010;-86
2022/09/15 07:30:37;;;;;;;0.00;0.00;;;15.70;99.90;;;;;;4939052;29;20469;-87
2022/09/15 07:33:07;;;;;;;0.00;0.00;;;15.80;99.90;;;;;;4940457;29;20489;-86
2022/09/15 07:35:41;;;;;;;0.00;0.00;;;15.90;99.90;;;;;;4945682;29;20433;-86
2022/09/15 07:38:09;;;;;;;0.00;0.00;;;15.90;99.90;;;;;;4960324;28;20456;-87
2022/09/15 07:40:40;;;;;;;0.00;0.00;;;15.90;99.90;;;;;;4961990;29;20491;-84
2022/09/15 07:43:08;;;;;;;0.00;0.00;;;15.90;99.90;;;;;;4962678;28;20495;-88
2022/09/15 07:45:36;;;;;;;0.00;0.00;;;15.80;99.90;;;;;;4964121;29;20464;-88
2022/09/15 07:48:05;;;;;;;0.00;0.00;;;15.70;99.90;;;;;;4962341;29;20528;-89
2022/09/15 07:50:33;;;;;;;0.00;0.00;;;15.70;99.90;;;;;;4972878;28;20460;-89
2022/09/15 07:53:02;;;;;;;0.00;0.00;;;15.70;99.90;;;;;;4982762;28;20479;-90
2022/09/15 07:55:31;;;;;;;0.00;0.00;;;15.80;99.90;;;;;;4979060;28;20483;-89
2022/09/15 07:58:00;;;;;;;0.00;0.00;;;15.80;99.90;;;;;;4978481;28;20432;-90
2022/09/15 08:00:28;;;;;;;0.00;0.00;;;15.80;99.90;;;;;;4980524;28;20468;-88
2022/09/15 08:02:56;;;;;;;0.00;0.00;;;15.90;99.90;;;;;;4980488;28;20470;-88
2022/09/15 08:05:31;;;;;;;0.00;0.00;;;16.00;99.90;;;;;;4980000;28;20452;-90
2022/09/15 08:08:06;;;;;;;0.00;0.00;;;15.90;99.90;;;;;;4980207;28;20845;-89
2022/09/15 08:10:37;;;;;;;0.00;0.00;;;16.00;99.90;;;;;;4981781;28;20498;-89
2022/09/15 08:13:06;;;;;;;0.00;0.00;;;16.00;99.90;;;;;;4982552;28;20903;-88
2022/09/15 08:15:36;;;;;;;0.00;0.00;;;16.00;99.90;;;;;;4982068;28;20475;-90
2022/09/15 08:18:05;;;;;;;0.00;0.00;;;16.00;99.90;;;;;;4982569;28;20448;-90
2022/09/15 08:20:33;;;;;;;0.00;0.00;;;16.10;99.90;;;;;;4981195;28;20482;-90
2022/09/15 08:23:01;;;;;;;0.00;0.00;;;16.10;99.90;;;;;;4983021;28;20452;-87
2022/09/15 08:25:30;;;;;;;0.00;0.00;;;16.20;99.90;;;;;;4981247;28;20436;-87
2022/09/15 08:27:58;;;;;;;0.00;0.00;;;16.30;99.90;;;;;;4996760;28;20439;-84
2022/09/15 08:30:27;;;;;;;0.00;0.00;;;16.40;99.90;;;;;;4981756;28;20466;-87
2022/09/15 08:32:55;;;;;;;0.00;0.00;;;16.50;99.90;;;;;;4980784;28;20451;-86
2022/09/15 08:35:22;;;;;;;0.00;0.00;;;16.80;99.90;;;;;;4979795;28;20479;-87
2022/09/15 08:37:53;;;;;;;0.00;0.00;;;17.00;99.90;;;;;;4979428;28;20522;-86
2022/09/15 08:40:25;;;;;;;0.00;0.00;;;17.30;99.90;;;;;;4980142;28;20471;-85
2022/09/15 08:42:59;;;;;;;0.00;0.00;;;17.40;99.90;;;;;;4980994;28;20433;-86
2022/09/15 08:45:34;;;;;;;0.00;0.00;;;17.50;99.90;;;;;;4981023;28;20464;-87
2022/09/15 08:48:06;;;;;;;0.00;0.00;;;17.50;99.90;;;;;;4981397;28;20439;-87
2022/09/15 08:50:39;;;;;;;0.00;0.00;;;17.50;99.90;;;;;;4981722;28;20527;-86
2022/09/15 08:53:11;;;;;;;0.00;0.00;;;17.50;99.90;;;;;;4981711;28;20420;-87
2022/09/15 08:55:47;;;;;;;0.00;0.00;;;17.60;99.90;;;;;;4980412;28;20552;-85
2022/09/15 08:58:20;;;;;;;0.00;0.00;;;17.60;99.90;;;;;;4979618;28;20483;-84
2022/09/15 09:00:56;;;;;;;0.00;0.00;;;17.80;99.90;;;;;;4981060;28;20469;-86
2022/09/15 09:03:45;;;;;;;0.00;0.00;;;17.90;99.90;;;;;;4981046;28;20450;-89
2022/09/15 09:06:22;;;;;;;0.00;0.00;;;17.90;99.90;;;;;;4980376;28;20489;-87
2022/09/15 09:09:04;;;;;;;0.00;0.00;;;18.10;99.90;;;;;;4979383;28;20444;-88
2022/09/15 09:11:47;;;;;;;0.00;0.00;;;18.10;99.90;;;;;;4981484;28;20457;-88
2022/09/15 09:14:24;;;;;;;0.00;0.00;;;18.10;99.90;;;;;;4980700;28;20469;-88
2022/09/15 09:17:30;;;;;;;0.00;0.00;;;18.00;99.90;;;;;;4982725;28;20910;-89
2022/09/15 09:20:21;;;;;;;0.00;0.00;;;18.10;99.90;;;;;;4980528;28;20481;-89
2022/09/15 09:22:53;;;;;;;0.00;0.00;;;18.20;99.90;;;;;;4980371;28;20470;-88
2022/09/15 09:25:23;;;;;;;0.00;0.00;;;18.30;99.90;;;;;;4981568;28;20474;-87
2022/09/15 09:27:57;;;;;;;0.00;0.00;;;18.40;99.90;;;;;;4983318;28;20938;-88
2022/09/15 09:30:31;;;;;;;0.00;0.00;;;18.40;99.90;;;;;;4989972;28;21035;-88
2022/09/15 09:33:13;;;;;;;0.00;0.00;;;18.20;99.90;;;;;;4980128;28;20504;-87
2022/09/15 09:35:45;;;;;;;0.00;0.00;;;18.10;99.90;;;;;;4980430;28;20499;-87
2022/09/15 09:38:20;;;;;;;0.00;0.00;;;18.00;99.90;;;;;;4977816;28;20996;-85
2022/09/15 09:40:49;;;;;;;0.00;0.00;;;17.90;99.90;;;;;;4960640;28;20482;-86
2022/09/15 09:43:17;;;;;;;0.00;0.00;;;17.80;99.90;;;;;;4974209;28;20516;-85
2022/09/15 09:46:02;;;;;;;0.00;0.00;;;17.50;99.90;;;;;;4978132;28;20568;-86
2022/09/15 09:48:31;;;;;;;0.00;0.00;;;17.10;99.90;;;;;;4971954;28;20792;-86
2022/09/15 09:50:59;;;;;;;0.00;0.00;;;16.50;99.90;;;;;;4981791;28;20484;-86
2022/09/15 09:53:29;;;;;;;0.00;0.00;;;16.10;99.90;;;;;;4983318;28;20569;-86
2022/09/15 09:56:15;;;;;;;0.00;0.00;;;15.80;99.90;;;;;;4983816;28;20570;-85
2022/09/15 09:58:44;;;;;;;0.00;0.00;;;15.50;99.90;;;;;;4982885;28;20435;-86
2022/09/15 10:01:23;;;;;;;0.00;0.00;;;15.40;99.90;;;;;;4983444;28;20459;-86
2022/09/15 10:04:12;;;;;;;0.00;0.00;;;15.30;99.90;;;;;;4984998;28;20418;-86
2022/09/15 10:06:43;;;;;;;0.00;0.00;;;15.30;99.90;;;;;;4984186;28;20463;-84
2022/09/15 10:09:16;;;;;;;0.00;0.00;;;15.30;99.90;;;;;;4984162;28;20522;-84
2022/09/15 10:11:47;;;;;;;0.00;0.00;;;15.30;99.90;;;;;;4983590;28;20462;-85
2022/09/15 10:14:21;;;;;;;0.00;0.00;;;15.30;99.90;;;;;;4985296;28;20427;-85
2022/09/15 10:17:07;;;;;;;0.00;0.00;;;15.30;99.90;;;;;;4984268;28;20479;-85
2022/09/15 10:19:44;;;;;;;0.00;0.00;;;15.30;99.90;;;;;;4965225;29;20459;-87
2022/09/15 10:22:25;;;;;;;0.00;0.00;;;15.30;99.90;;;;;;4976093;28;20447;-87
2022/09/15 10:24:54;;;;;;;0.00;0.00;;;15.40;99.90;;;;;;4983627;28;20543;-86
2022/09/15 10:27:30;;;;;;;0.00;0.00;;;15.50;99.90;;;;;;4984171;28;20440;-86
2022/09/15 10:30:12;;;;;;;0.00;0.00;;;15.60;99.90;;;;;;4974871;28;20480;-85
2022/09/15 10:32:46;;;;;;;0.00;0.00;;;15.70;99.90;;;;;;4972257;28;20421;-88
2022/09/15 10:35:19;;;;;;;0.00;0.00;;;15.90;99.90;;;;;;4966045;29;20893;-88
2022/09/15 10:44:35;;;;;;;0.00;0.00;;;16.10;99.90;;;;;;4929070;29;20505;-87
2022/09/15 10:47:20;;;;;;;0.00;0.00;;;16.00;99.90;;;;;;4942608;29;20477;-88
2022/09/15 10:50:04;;;;;;;0.00;0.00;;;16.00;99.90;;;;;;4943809;29;20457;-86
2022/09/15 10:52:42;;;;;;;0.00;0.00;;;16.00;99.90;;;;;;4939919;29;20822;-88
2022/09/15 10:55:25;;;;;;;0.00;0.00;;;16.10;99.90;;;;;;4939948;29;20501;-88
2022/09/15 10:58:37;;;;;;;0.00;0.00;;;16.20;99.90;;;;;;4942248;29;20469;-87
2022/09/15 11:01:30;;;;;;;0.00;0.00;;;16.20;99.90;;;;;;4939473;29;20526;-87
2022/09/15 11:04:12;;;;;;;0.00;0.00;;;16.30;99.90;;;;;;4945299;29;20460;-86
2022/09/15 11:06:47;;;;;;;0.00;0.00;;;16.40;99.90;;;;;;4963560;28;20470;-88
2022/09/15 11:09:22;;;;;;;0.00;0.00;;;16.40;99.90;;;;;;4964043;29;20462;-87
2022/09/15 11:12:04;;;;;;;0.00;0.00;;;16.50;99.90;;;;;;4963929;29;20468;-87
2022/09/15 11:14:44;;;;;;;0.00;0.00;;;16.60;99.90;;;;;;4964764;29;20433;-87
2022/09/15 11:17:35;;;;;;;0.00;0.00;;;16.80;99.90;;;;;;4974903;28;20843;-86
2022/09/15 11:20:19;;;;;;;0.00;0.00;;;17.20;99.90;;;;;;4987032;28;20483;-86
2022/09/15 11:22:53;;;;;;;0.00;0.00;;;17.50;99.90;;;;;;4982939;28;20529;-88
2022/09/15 11:25:26;;;;;;;0.00;0.00;;;17.80;99.90;;;;;;4987541;28;20457;-87
2022/09/15 11:28:03;;;;;;;0.00;0.00;;;17.80;99.90;;;;;;4986074;28;20520;-86
2022/09/15 11:30:35;;;;;;;0.00;0.00;;;17.40;99.90;;;;;;4989085;28;20468;-86
2022/09/15 11:33:06;;;;;;;0.00;0.00;;;16.60;99.90;;;;;;4996499;28;20460;-87
2022/09/15 11:35:44;;;;;;;0.00;0.00;;;15.90;99.90;;;;;;4985158;28;20470;-87
2022/09/15 11:38:28;;;;;;;0.00;0.00;;;15.40;99.90;;;;;;4988064;28;20494;-87
2022/09/15 11:41:09;;;;;;;0.00;0.00;;;15.10;99.90;;;;;;4989466;28;20456;-87
2022/09/15 11:43:44;;;;;;;0.00;0.00;;;14.80;99.90;;;;;;4970555;28;20472;-86
2022/09/15 11:46:40;;;;;;;0.00;0.00;;;14.50;99.90;;;;;;4976753;28;20878;-87
2022/09/15 11:52:21;;;;;;;0.00;0.00;;;14.30;99.90;;;;;;4975457;29;20476;-84
2022/09/15 11:54:58;;;;;;;0.00;0.00;;;14.30;99.90;;;;;;4975004;28;20481;-87
2022/09/15 11:57:45;;;;;;;0.00;0.00;;;14.30;99.90;;;;;;4977731;28;20491;-87
2022/09/15 12:00:15;;;;;;;0.00;0.00;;;14.30;99.90;;;;;;4994005;28;20490;-88
2022/09/15 12:02:50;;;;;;;0.00;0.00;;;14.30;99.90;;;;;;4994979;28;20494;-87
2022/09/15 12:05:24;;;;;;;0.00;0.00;;;14.40;99.90;;;;;;4992313;28;20467;-87
2022/09/15 12:08:00;;;;;;;0.00;0.00;;;14.50;99.90;;;;;;4992818;28;20451;-87
2022/09/15 12:10:33;;;;;;;0.00;0.00;;;14.60;99.90;;;;;;4993373;28;20456;-85
2022/09/15 12:13:02;;;;;;;0.00;0.00;;;14.70;99.90;;;;;;4989045;28;20515;-85
2022/09/15 12:15:31;;;;;;;0.00;0.00;;;14.80;99.90;;;;;;4995874;28;20429;-86
2022/09/15 12:18:11;;;;;;;0.00;0.00;;;14.90;99.90;;;;;;4987942;28;20436;-84
2022/09/15 12:21:04;;;;;;;0.00;0.00;;;15.10;99.90;;;;;;4982850;28;20794;-87
2022/09/15 12:23:37;;;;;;;0.00;0.00;;;15.40;99.90;;;;;;4983030;28;20467;-86
2022/09/15 12:26:15;;;;;;;0.00;0.00;;;15.70;99.90;;;;;;4988445;28;20455;-85
2022/09/15 12:28:56;;;;;;;0.00;0.00;;;15.90;99.90;;;;;;4988877;28;20451;-86
2022/09/15 12:31:32;;;;;;;0.00;0.00;;;16.00;99.90;;;;;;4992067;28;20495;-86
2022/09/15 12:34:02;;;;;;;0.00;0.00;;;16.00;99.90;;;;;;4989151;28;20459;-84
2022/09/15 12:36:39;;;;;;;0.00;0.00;;;16.00;99.90;;;;;;4970685;29;20488;-84
2022/09/15 12:39:24;;;;;;;0.00;0.00;;;16.10;99.90;;;;;;4969967;29;20444;-85
2022/09/15 12:41:56;;;;;;;0.00;0.00;;;16.30;99.90;;;;;;4956429;28;20499;-86
2022/09/15 12:44:31;;;;;;;0.00;0.00;;;16.40;99.90;;;;;;4970433;29;20441;-85
2022/09/15 12:47:01;;;;;;;0.00;0.00;;;16.50;99.90;;;;;;4972992;28;20862;-85
2022/09/15 12:49:33;;;;;;;0.00;0.00;;;16.60;99.90;;;;;;4991542;28;20433;-84
2022/09/15 12:52:06;;;;;;;0.00;0.00;;;16.70;99.90;;;;;;4990201;28;20511;-86
2022/09/15 12:54:37;;;;;;;0.00;0.00;;;16.70;99.90;;;;;;4989755;28;20440;-85
2022/09/15 12:57:15;;;;;;;0.00;0.00;;;16.90;99.90;;;;;;4989870;28;20461;-85
2022/09/15 12:59:43;;;;;;;0.00;0.00;;;17.10;99.90;;;;;;4990541;28;20448;-85
2022/09/15 13:02:42;;;;;;;0.00;0.00;;;17.40;99.90;;;;;;4989949;28;20467;-85
2022/09/15 13:05:11;;;;;;;0.00;0.00;;;17.70;99.90;;;;;;4991600;28;20551;-87
2022/09/15 13:07:55;;;;;;;0.00;0.00;;;18.00;99.90;;;;;;4991631;28;20831;-82
2022/09/15 13:10:33;;;;;;;0.00;0.00;;;18.10;99.90;;;;;;4991301;28;21036;-85
2022/09/15 13:13:14;;;;;;;0.00;0.00;;;18.40;99.90;;;;;;4991844;28;20447;-86
2022/09/15 13:15:46;;;;;;;0.00;0.00;;;18.60;99.90;;;;;;4989553;28;20466;-84
2022/09/15 13:18:15;;;;;;;0.00;0.00;;;18.60;99.90;;;;;;4988635;28;20467;-84
2022/09/15 13:20:51;;;;;;;0.00;0.00;;;18.70;99.90;;;;;;4988398;28;20491;-84
2022/09/15 13:23:23;;;;;;;0.00;0.00;;;18.80;99.90;;;;;;4990068;28;20443;-84
2022/09/15 13:25:55;;;;;;;0.00;0.00;;;18.80;99.90;;;;;;4988353;28;20538;-85
2022/09/15 13:28:27;;;;;;;0.00;0.00;;;18.60;99.90;;;;;;4985981;28;20453;-89
2022/09/15 13:31:16;;;;;;;0.00;0.00;;;18.30;99.90;;;;;;4989608;28;20461;-85
2022/09/15 13:34:03;;;;;;;0.00;0.00;;;17.90;99.90;;;;;;4990510;28;20487;-87
2022/09/15 13:37:06;;;;;;;0.00;0.00;;;17.40;99.90;;;;;;4990725;28;20487;-85
2022/09/15 13:40:25;;;;;;;0.00;0.00;;;16.90;99.90;;;;;;4989428;28;20444;-88